Time;durP1;ratioP1;P1;durP2;ratioP2;P2;SDS_P1;SDS_P2;PMS_P1;PMS_P2;Temp;Humidity;BMP_temperature;BMP_pressure;BME280_temperature;BME280_humidity;BME280_pressure;Samples;Min_cycle;Max_cycle;Signal;HPM_P1;HPM_P2
2022/09/20 00:00:41;;;;;;;54.97;29.95;;;7.10;99.90;;;;;;5031461;28;20547;-58
2022/09/20 00:03:08;;;;;;;75.82;38.35;;;7.10;99.90;;;;;;5016105;28;20030;-58
2022/09/20 00:05:36;;;;;;;70.50;35.97;;;7.10;99.90;;;;;;5031593;28;20033;-58
2022/09/20 00:08:04;;;;;;;70.75;37.38;;;7.10;99.90;;;;;;5016318;28;20140;-58
2022/09/20 00:10:36;;;;;;;75.43;38.53;;;7.20;99.90;;;;;;5016448;28;20041;-58
2022/09/20 00:13:02;;;;;;;88.15;41.53;;;7.20;99.90;;;;;;5015957;28;20075;-58
2022/09/20 00:15:29;;;;;;;77.47;39.90;;;7.00;99.90;;;;;;5015965;28;20476;-58
2022/09/20 00:17:55;;;;;;;77.72;39.95;;;6.90;99.90;;;;;;5016054;28;20053;-58
2022/09/20 00:20:21;;;;;;;78.35;40.13;;;6.90;99.90;;;;;;5015836;28;20153;-58
2022/09/20 00:22:48;;;;;;;73.30;39.00;;;6.90;99.90;;;;;;5031054;28;20077;-58
2022/09/20 00:25:18;;;;;;;70.95;38.13;;;6.80;99.90;;;;;;5015901;28;20115;-58
2022/09/20 00:27:45;;;;;;;78.47;39.53;;;6.80;99.90;;;;;;5015911;28;20030;-58
2022/09/20 00:30:12;;;;;;;72.88;37.63;;;6.80;99.90;;;;;;5015899;28;20380;-58
2022/09/20 00:32:39;;;;;;;68.32;33.35;;;6.80;99.90;;;;;;5015773;28;20049;-58
2022/09/20 00:35:11;;;;;;;66.60;35.85;;;6.80;99.90;;;;;;5014549;28;20034;-58
2022/09/20 00:37:39;;;;;;;65.88;33.80;;;6.80;99.90;;;;;;5015927;28;20065;-58
2022/09/20 00:40:15;;;;;;;64.32;32.97;;;6.80;99.90;;;;;;5015688;28;20461;-58
2022/09/20 00:42:41;;;;;;;69.13;31.20;;;6.70;99.90;;;;;;5015673;28;20033;-58
2022/09/20 00:45:21;;;;;;;65.72;34.47;;;6.80;99.90;;;;;;5015744;28;20021;-58
2022/09/20 00:48:22;;;;;;;63.53;32.92;;;6.70;99.90;;;;;;5015460;28;20088;-58
2022/09/20 00:50:53;;;;;;;65.68;32.25;;;6.70;99.90;;;;;;5015284;28;20026;-58
2022/09/20 00:53:25;;;;;;;61.63;31.98;;;6.60;99.90;;;;;;5015550;28;20038;-58
2022/09/20 00:56:08;;;;;;;55.33;28.83;;;6.60;99.90;;;;;;5015251;28;20076;-58
2022/09/20 00:58:40;;;;;;;59.58;29.80;;;6.70;99.90;;;;;;5015423;28;20492;-58
2022/09/20 01:01:06;;;;;;;53.83;29.00;;;6.70;99.90;;;;;;5015094;28;20044;-58
2022/09/20 01:03:34;;;;;;;60.63;29.45;;;6.70;99.90;;;;;;5015263;28;20029;-58
2022/09/20 01:06:05;;;;;;;56.08;27.50;;;6.60;99.90;;;;;;5015285;28;20042;-58
2022/09/20 01:08:33;;;;;;;54.33;27.30;;;6.70;99.90;;;;;;5015163;28;20460;-58
2022/09/20 01:10:59;;;;;;;49.63;26.45;;;6.80;99.90;;;;;;5014962;28;20402;-58
2022/09/20 01:13:25;;;;;;;51.33;26.95;;;6.90;99.90;;;;;;5030376;28;20036;-58
2022/09/20 01:15:53;;;;;;;49.53;26.05;;;6.90;99.90;;;;;;5014878;28;20026;-58
2022/09/20 01:18:19;;;;;;;51.75;24.83;;;6.90;99.90;;;;;;5015037;28;20099;-58
2022/09/20 01:20:46;;;;;;;51.65;26.65;;;6.90;99.90;;;;;;5014848;28;20076;-58
2022/09/20 01:23:37;;;;;;;57.30;27.58;;;6.90;99.90;;;;;;5014915;28;20030;-58
2022/09/20 01:26:15;;;;;;;48.22;25.90;;;6.70;99.90;;;;;;5014963;28;20033;-58
2022/09/20 01:28:45;;;;;;;49.15;24.58;;;6.60;99.90;;;;;;5014864;28;20045;-58
2022/09/20 01:31:27;;;;;;;46.58;25.25;;;6.50;99.90;;;;;;5014784;28;20061;-58
2022/09/20 01:34:04;;;;;;;42.95;24.17;;;6.60;99.90;;;;;;5014851;28;20030;-58
2022/09/20 01:36:41;;;;;;;47.95;23.08;;;6.50;99.90;;;;;;5014583;28;20382;-58
2022/09/20 01:39:19;;;;;;;43.08;22.75;;;6.40;99.90;;;;;;5014671;28;20447;-58
2022/09/20 01:41:57;;;;;;;44.88;22.35;;;6.50;99.90;;;;;;5014648;28;20038;-58
2022/09/20 01:45:00;;;;;;;41.72;22.48;;;6.60;99.90;;;;;;5013285;28;20034;-58
2022/09/20 01:47:43;;;;;;;39.42;21.40;;;6.50;99.90;;;;;;5014302;28;20488;-58
2022/09/20 01:50:57;;;;;;;43.50;21.13;;;6.50;99.90;;;;;;5014700;28;20053;-58
2022/09/20 01:53:42;;;;;;;48.33;22.60;;;6.50;99.90;;;;;;4961073;28;20043;-58
2022/09/20 01:56:44;;;;;;;35.00;20.83;;;6.40;99.90;;;;;;5014466;28;20540;-58
2022/09/20 01:59:19;;;;;;;41.03;20.67;;;6.50;99.90;;;;;;5014737;28;20105;-58
2022/09/20 02:01:51;;;;;;;35.97;19.13;;;6.50;99.90;;;;;;5014571;28;20049;-58
2022/09/20 02:04:41;;;;;;;41.30;20.88;;;6.60;99.90;;;;;;5014639;28;20037;-58
2022/09/20 02:07:44;;;;;;;38.42;18.02;;;6.60;99.90;;;;;;5014575;28;20026;-58
2022/09/20 02:10:33;;;;;;;32.83;17.83;;;6.50;99.90;;;;;;5014644;28;20041;-58
2022/09/20 02:13:31;;;;;;;34.78;17.02;;;6.40;99.90;;;;;;4985069;28;20068;-58
2022/09/20 02:16:21;;;;;;;30.33;18.27;;;6.30;99.90;;;;;;5014399;28;20033;-58
2022/09/20 02:19:17;;;;;;;31.08;16.50;;;6.40;99.90;;;;;;5014362;28;20438;-58
2022/09/20 02:22:04;;;;;;;28.42;15.75;;;6.40;99.90;;;;;;5013978;28;20506;-58
2022/09/20 02:24:51;;;;;;;31.42;18.17;;;6.50;99.90;;;;;;5014431;28;20049;-58
2022/09/20 02:27:29;;;;;;;33.95;18.70;;;6.70;99.90;;;;;;5014321;28;20036;-58
2022/09/20 02:30:37;;;;;;;29.63;16.10;;;6.60;99.90;;;;;;5014290;28;20102;-58
2022/09/20 02:33:30;;;;;;;29.00;15.88;;;6.60;99.90;;;;;;5013583;28;20100;-58
2022/09/20 02:36:20;;;;;;;28.17;16.05;;;6.60;99.90;;;;;;5014256;28;20488;-58
2022/09/20 02:39:02;;;;;;;26.83;15.40;;;6.50;99.90;;;;;;5014271;28;20060;-58
2022/09/20 02:41:37;;;;;;;31.25;17.60;;;6.50;99.90;;;;;;5014096;28;20034;-58
2022/09/20 02:44:27;;;;;;;35.33;17.75;;;6.40;99.90;;;;;;5014103;28;20029;-58
2022/09/20 02:47:07;;;;;;;31.65;17.17;;;6.40;99.90;;;;;;5013959;28;20381;-58
2022/09/20 02:50:11;;;;;;;30.80;17.90;;;6.50;99.90;;;;;;5014015;28;20037;-58
2022/09/20 02:52:58;;;;;;;34.78;18.88;;;6.60;99.90;;;;;;5013758;28;20155;-58
2022/09/20 02:55:50;;;;;;;39.33;21.05;;;6.60;99.90;;;;;;5013853;28;20488;-58
2022/09/20 02:58:25;;;;;;;39.00;21.00;;;6.60;99.90;;;;;;5014854;28;20405;-58
2022/09/20 03:00:53;;;;;;;31.30;18.17;;;6.50;99.90;;;;;;5017679;28;20032;-58
2022/09/20 03:03:26;;;;;;;34.20;18.48;;;6.50;99.90;;;;;;5017487;28;20030;-58
2022/09/20 03:06:26;;;;;;;33.50;18.27;;;6.60;99.90;;;;;;5032861;28;20057;-58
2022/09/20 03:09:19;;;;;;;37.30;18.60;;;6.60;99.90;;;;;;5017433;28;20056;-58
2022/09/20 03:12:13;;;;;;;35.20;18.63;;;6.50;99.90;;;;;;5017318;28;20112;-58
2022/09/20 03:15:13;;;;;;;36.95;19.73;;;6.50;99.90;;;;;;5017346;28;20037;-58
2022/09/20 03:18:05;;;;;;;35.05;19.63;;;6.40;99.90;;;;;;5014090;28;20053;-58
2022/09/20 03:20:37;;;;;;;42.33;20.77;;;6.50;99.90;;;;;;5017033;28;20441;-58
2022/09/20 03:23:21;;;;;;;36.05;19.90;;;6.50;99.90;;;;;;5017010;28;20033;-58
2022/09/20 03:26:01;;;;;;;44.55;20.80;;;6.40;99.90;;;;;;5016995;28;20029;-58
2022/09/20 03:28:38;;;;;;;41.00;22.03;;;6.40;99.90;;;;;;5017221;28;20364;-58
2022/09/20 03:31:07;;;;;;;38.17;19.27;;;6.40;99.90;;;;;;5016852;28;20072;-58
2022/09/20 03:33:58;;;;;;;42.20;20.60;;;6.40;99.90;;;;;;5016935;28;20030;-58
2022/09/20 03:36:38;;;;;;;37.65;18.90;;;6.40;99.90;;;;;;5016800;28;20108;-58
2022/09/20 03:39:26;;;;;;;40.92;19.02;;;6.60;99.90;;;;;;5016765;28;20368;-58
2022/09/20 03:42:06;;;;;;;36.53;18.58;;;6.50;99.90;;;;;;5016924;28;20025;-58
2022/09/20 03:44:51;;;;;;;35.50;18.30;;;6.30;99.90;;;;;;5016655;28;20103;-58
2022/09/20 03:47:50;;;;;;;34.45;17.63;;;6.30;99.90;;;;;;5015427;28;20038;-58
2022/09/20 03:50:42;;;;;;;36.72;17.90;;;6.20;99.90;;;;;;5016865;28;20434;-57
2022/09/20 03:53:33;;;;;;;36.70;19.30;;;6.30;99.90;;;;;;4993472;28;20057;-58
2022/09/20 03:56:11;;;;;;;;;;;6.30;99.90;;;;;;5016924;28;20101;-58
2022/09/20 03:59:15;;;;;;;41.38;19.15;;;6.30;99.90;;;;;;5016266;28;20390;-58
2022/09/20 04:02:16;;;;;;;52.13;21.33;;;6.30;99.90;;;;;;4983173;28;20034;-58
2022/09/20 04:04:54;;;;;;;44.92;20.25;;;6.30;99.90;;;;;;5016317;28;20562;-58
2022/09/20 04:07:25;;;;;;;42.55;20.25;;;6.20;99.90;;;;;;5016258;28;20037;-58
2022/09/20 04:10:12;;;;;;;47.83;21.85;;;6.20;99.90;;;;;;5015989;28;20034;-58
2022/09/20 04:12:41;;;;;;;41.30;21.23;;;6.30;99.90;;;;;;5016194;28;20492;-58
2022/09/20 04:15:22;;;;;;;35.88;18.33;;;6.30;99.90;;;;;;5016114;28;20029;-59
2022/09/20 04:17:53;;;;;;;;;;;6.20;99.90;;;;;;5016504;28;20037;-58
2022/09/20 04:20:45;;;;;;;37.90;17.83;;;6.30;99.90;;;;;;5015814;28;19910;-58
2022/09/20 04:23:26;;;;;;;41.30;19.45;;;6.30;99.90;;;;;;5015752;28;20105;-58
2022/09/20 04:25:53;;;;;;;37.03;19.17;;;6.40;99.90;;;;;;5015933;28;20038;-58
2022/09/20 04:28:46;;;;;;;37.53;19.13;;;6.40;99.90;;;;;;5015677;28;20440;-58
2022/09/20 04:31:39;;;;;;;35.33;16.88;;;6.30;99.90;;;;;;5015894;28;20062;-58
2022/09/20 04:34:12;;;;;;;27.90;15.32;;;6.50;99.90;;;;;;5015652;28;20056;-58
2022/09/20 04:37:04;;;;;;;36.83;16.58;;;6.50;99.90;;;;;;5015515;28;20038;-58
2022/09/20 04:39:33;;;;;;;47.13;22.13;;;6.50;99.90;;;;;;4996116;28;20519;-58
2022/09/20 04:42:28;;;;;;;49.97;22.90;;;6.50;99.90;;;;;;4996011;28;20516;-58
2022/09/20 04:45:29;;;;;;;50.67;23.67;;;6.50;99.90;;;;;;4995773;28;20030;-58
2022/09/20 04:48:12;;;;;;;52.05;24.10;;;6.50;99.90;;;;;;4995939;28;20080;-58
2022/09/20 04:50:50;;;;;;;213.95;66.30;;;6.50;99.90;;;;;;4995919;28;20049;-58
2022/09/20 04:53:34;;;;;;;102.70;39.63;;;6.50;99.90;;;;;;4995837;28;20076;-58
2022/09/20 04:56:05;;;;;;;76.82;31.15;;;6.50;99.90;;;;;;4995702;28;20034;-58
2022/09/20 04:58:59;;;;;;;63.70;28.48;;;6.50;99.90;;;;;;4995619;28;20041;-58
2022/09/20 05:01:57;;;;;;;62.83;27.85;;;6.50;99.90;;;;;;4992638;28;20520;-58
2022/09/20 05:04:37;;;;;;;62.50;28.70;;;6.70;99.90;;;;;;4995740;28;20058;-58
2022/09/20 05:07:08;;;;;;;53.70;26.50;;;7.00;99.90;;;;;;4995587;28;20457;-58
2022/09/20 05:09:55;;;;;;;69.13;26.58;;;7.10;99.90;;;;;;4995407;28;20045;-58
2022/09/20 05:12:40;;;;;;;54.80;23.27;;;7.10;99.90;;;;;;4995876;28;20033;-58
2022/09/20 05:15:22;;;;;;;92.45;26.02;;;6.90;99.90;;;;;;4995585;28;20030;-58
2022/09/20 05:18:27;;;;;;;54.65;24.17;;;6.90;99.90;;;;;;4995421;28;20053;-58
2022/09/20 05:21:21;;;;;;;89.28;21.92;;;6.80;99.90;;;;;;5002666;28;20026;-58
2022/09/20 05:23:50;;;;;;;44.22;19.85;;;6.70;99.90;;;;;;5015067;28;20097;-58
2022/09/20 05:26:42;;;;;;;45.60;21.30;;;6.80;99.90;;;;;;5014800;28;20036;-58
2022/09/20 05:29:49;;;;;;;50.78;23.40;;;7.00;99.90;;;;;;5014953;28;20464;-58
2022/09/20 05:32:34;;;;;;;44.38;21.35;;;7.10;99.90;;;;;;5014285;28;20058;-58
2022/09/20 05:35:29;;;;;;;59.70;25.23;;;7.10;99.90;;;;;;5014745;28;20487;-58
2022/09/20 05:38:15;;;;;;;47.72;23.42;;;7.30;99.90;;;;;;5014645;28;20403;-58
2022/09/20 05:41:17;;;;;;;61.83;27.80;;;7.40;99.90;;;;;;5014697;28;20061;-58
2022/09/20 05:43:56;;;;;;;56.53;27.88;;;7.50;99.90;;;;;;5013255;28;20029;-58
2022/09/20 05:46:32;;;;;;;67.75;29.65;;;7.10;99.90;;;;;;5006806;28;20026;-58
2022/09/20 05:49:42;;;;;;;56.47;26.05;;;6.90;99.90;;;;;;4995023;28;20065;-58
2022/09/20 05:52:20;;;;;;;118.85;26.02;;;7.20;99.90;;;;;;4994565;28;20050;-58
2022/09/20 05:55:45;;;;;;;129.65;35.30;;;7.10;99.90;;;;;;4994725;28;20420;-58
2022/09/20 05:58:32;;;;;;;73.75;32.25;;;7.00;99.90;;;;;;4972870;28;20063;-58
2022/09/20 06:01:12;;;;;;;70.15;32.75;;;6.90;99.90;;;;;;4973037;28;20505;-58
2022/09/20 06:03:54;;;;;;;71.35;32.33;;;7.20;99.90;;;;;;4973057;28;20047;-58
2022/09/20 06:06:20;;;;;;;136.77;33.42;;;7.30;99.90;;;;;;4972661;28;20150;-58
2022/09/20 06:09:08;;;;;;;83.97;33.30;;;7.10;99.90;;;;;;4973254;28;20038;-58
2022/09/20 06:11:47;;;;;;;91.30;35.33;;;7.00;99.90;;;;;;4981985;28;20121;-58
2022/09/20 06:14:32;;;;;;;107.20;41.28;;;7.10;99.90;;;;;;4992600;28;20034;-58
2022/09/20 06:17:15;;;;;;;80.38;36.92;;;7.00;99.90;;;;;;4991866;28;20128;-58
2022/09/20 06:20:01;;;;;;;76.15;36.42;;;7.10;99.90;;;;;;4990707;28;20022;-58
2022/09/20 06:22:30;;;;;;;75.18;33.40;;;7.40;99.90;;;;;;4972594;28;20066;-58
2022/09/20 06:25:08;;;;;;;83.57;37.55;;;7.60;99.90;;;;;;4972189;28;20027;-58
2022/09/20 06:27:50;;;;;;;87.78;37.15;;;7.80;99.90;;;;;;4972235;28;20361;-58
2022/09/20 06:30:21;;;;;;;80.63;34.28;;;7.80;99.90;;;;;;4995143;28;20030;-58
2022/09/20 06:32:59;;;;;;;86.25;40.45;;;8.00;99.90;;;;;;4997006;28;20388;-59
2022/09/20 06:35:57;;;;;;;92.03;39.63;;;8.20;99.90;;;;;;4998406;28;20132;-59
2022/09/20 06:41:33;;;;;;;78.50;35.72;;;8.90;99.90;;;;;;5018315;28;20041;-59
2022/09/20 06:44:05;;;;;;;68.80;32.80;;;9.20;99.90;;;;;;5032477;28;20083;-59
2022/09/20 06:46:33;;;;;;;74.50;34.67;;;9.40;99.90;;;;;;5017284;28;20038;-59
2022/09/20 06:48:59;;;;;;;92.25;42.10;;;9.30;99.90;;;;;;5017485;28;20034;-59
2022/09/20 06:51:27;;;;;;;78.18;34.88;;;9.40;99.90;;;;;;5017051;28;20523;-59
2022/09/20 06:53:56;;;;;;;58.67;30.00;;;9.40;99.90;;;;;;5017537;28;20042;-59
2022/09/20 06:56:28;;;;;;;67.82;32.55;;;9.20;99.90;;;;;;5016993;28;20392;-59
2022/09/20 06:58:54;;;;;;;68.53;32.38;;;9.20;99.90;;;;;;5017447;28;20088;-59
2022/09/20 07:01:20;;;;;;;84.07;35.47;;;9.50;99.90;;;;;;5017203;28;20030;-59
2022/09/20 07:03:46;;;;;;;80.95;35.88;;;9.50;99.90;;;;;;5017196;28;20431;-59
2022/09/20 07:06:16;;;;;;;80.07;35.08;;;9.70;99.90;;;;;;5017315;28;20041;-59
2022/09/20 07:08:43;;;;;;;86.72;43.55;;;9.80;99.90;;;;;;5017005;28;20037;-59
2022/09/20 07:11:14;;;;;;;77.72;35.35;;;9.50;99.90;;;;;;5017219;28;20026;-59
2022/09/20 07:13:44;;;;;;;70.68;34.35;;;9.90;99.90;;;;;;5017201;28;20117;-59
2022/09/20 07:16:15;;;;;;;71.38;32.50;;;10.20;99.90;;;;;;5016644;28;20069;-59
2022/09/20 07:18:41;;;;;;;67.88;31.23;;;10.60;99.90;;;;;;5017154;28;20072;-59
2022/09/20 07:21:15;;;;;;;66.38;31.65;;;10.60;99.90;;;;;;5017467;28;20063;-59
2022/09/20 07:23:44;;;;;;;69.03;32.70;;;11.10;99.90;;;;;;5017439;28;20030;-59
2022/09/20 07:26:18;;;;;;;58.28;29.70;;;11.30;99.90;;;;;;5017341;28;20037;-59
2022/09/20 07:28:44;;;;;;;61.50;32.63;;;11.70;99.90;;;;;;5017449;28;20128;-59
2022/09/20 07:31:10;;;;;;;52.05;30.25;;;12.20;99.90;;;;;;5017655;28;20030;-59
2022/09/20 07:33:36;;;;;;;49.60;25.60;;;12.90;99.90;;;;;;5017540;28;20030;-59
2022/09/20 07:36:02;;;;;;;54.38;25.95;;;13.80;99.90;;;;;;5017234;28;20029;-59
2022/09/20 07:38:27;;;;;;;60.53;30.80;;;14.20;99.90;;;;;;5016923;28;20026;-59
2022/09/20 07:40:59;;;;;;;130.50;47.40;;;14.70;99.90;;;;;;5017450;28;20460;-59
2022/09/20 07:43:26;;;;;;;80.50;37.83;;;14.50;99.90;;;;;;5016715;28;20472;-59
2022/09/20 07:45:54;;;;;;;77.65;38.38;;;14.70;99.90;;;;;;5016988;28;20026;-59
2022/09/20 07:48:29;;;;;;;82.07;39.70;;;14.90;99.90;;;;;;5017226;28;20036;-59
2022/09/20 07:51:04;;;;;;;83.63;44.65;;;15.60;99.90;;;;;;5016929;28;20038;-59
2022/09/20 07:53:30;;;;;;;85.22;43.95;;;16.10;99.90;;;;;;5017092;28;20034;-59
2022/09/20 07:56:04;;;;;;;79.78;38.33;;;16.50;99.40;;;;;;5015801;28;20076;-59
2022/09/20 07:58:32;;;;;;;55.83;28.60;;;16.70;95.70;;;;;;5016279;28;20030;-59
2022/09/20 08:01:00;;;;;;;47.72;24.77;;;17.30;94.50;;;;;;5014462;28;20065;-59
2022/09/20 08:03:29;;;;;;;43.45;24.65;;;17.10;94.80;;;;;;5016251;28;20093;-59
2022/09/20 08:06:00;;;;;;;41.28;22.38;;;17.70;92.80;;;;;;5016501;28;20057;-59
2022/09/20 08:08:27;;;;;;;38.38;20.70;;;17.70;90.00;;;;;;5015943;28;20057;-59
2022/09/20 08:11:02;;;;;;;35.15;21.00;;;17.90;86.20;;;;;;5016089;28;20137;-60
2022/09/20 08:13:28;;;;;;;39.85;21.15;;;18.20;84.30;;;;;;5015781;28;20123;-60
2022/09/20 08:16:02;;;;;;;32.53;18.77;;;18.50;88.20;;;;;;5015758;28;20045;-60
2022/09/20 08:18:31;;;;;;;29.67;17.48;;;18.90;80.00;;;;;;5016601;28;20376;-60
2022/09/20 08:21:06;;;;;;;21.20;14.40;;;18.90;77.30;;;;;;5016262;28;20329;-60
2022/09/20 08:23:36;;;;;;;27.67;14.55;;;18.60;74.60;;;;;;5016593;28;20030;-60
2022/09/20 08:26:04;;;;;;;29.08;13.85;;;19.60;74.40;;;;;;5016577;28;20035;-60
2022/09/20 08:28:31;;;;;;;27.92;17.13;;;19.20;68.80;;;;;;5016333;28;20436;-60
2022/09/20 08:31:03;;;;;;;38.72;23.45;;;19.50;63.20;;;;;;5016477;28;20140;-60
2022/09/20 08:33:30;;;;;;;36.83;22.75;;;20.00;65.10;;;;;;5016048;28;20045;-60
2022/09/20 08:35:56;;;;;;;37.35;19.35;;;19.80;64.70;;;;;;5016274;28;20034;-60
2022/09/20 08:38:26;;;;;;;35.08;20.48;;;20.00;64.30;;;;;;5016277;28;20476;-60
2022/09/20 08:41:24;;;;;;;32.42;17.30;;;20.00;67.80;;;;;;5016182;28;20026;-60
2022/09/20 08:43:56;;;;;;;20.15;13.82;;;20.50;65.80;;;;;;5016058;28;20038;-60
2022/09/20 08:46:26;;;;;;;17.77;12.65;;;20.70;64.30;;;;;;5016305;28;20365;-60
2022/09/20 08:48:52;;;;;;;18.73;11.85;;;20.80;66.90;;;;;;5015782;28;20030;-60
2022/09/20 08:51:20;;;;;;;12.90;8.38;;;21.40;65.10;;;;;;5015831;28;20404;-60
2022/09/20 08:53:52;;;;;;;13.60;8.48;;;21.50;63.60;;;;;;5016017;28;20072;-60
2022/09/20 08:56:19;;;;;;;13.98;8.38;;;21.80;58.00;;;;;;5012963;28;20030;-60
2022/09/20 08:58:46;;;;;;;13.05;7.18;;;21.60;59.10;;;;;;5015699;28;20030;-60
2022/09/20 09:01:20;;;;;;;11.13;6.00;;;20.90;58.80;;;;;;5015837;28;20025;-60
2022/09/20 09:03:50;;;;;;;15.73;7.32;;;21.80;56.00;;;;;;5015624;28;20065;-60
2022/09/20 09:06:20;;;;;;;15.95;7.30;;;21.70;56.80;;;;;;5015910;28;20060;-60
2022/09/20 09:08:48;;;;;;;11.57;6.75;;;22.00;54.90;;;;;;5015666;28;20034;-60
2022/09/20 09:11:16;;;;;;;15.82;7.25;;;21.20;56.20;;;;;;5030243;28;20176;-60
2022/09/20 09:14:46;;;;;;;16.33;6.88;;;21.90;55.10;;;;;;5015440;28;20176;-60
2022/09/20 09:16:53;;;;;;;7.75;5.55;;;22.00;57.20;;;;;;5015513;28;20088;-60
2022/09/20 09:19:31;;;;;;;6.57;4.30;;;22.10;53.80;;;;;;5015540;28;20079;-60
2022/09/20 09:22:03;;;;;;;6.55;3.67;;;22.30;50.70;;;;;;4998731;28;20038;-61
2022/09/20 09:24:32;;;;;;;10.93;5.80;;;22.20;48.00;;;;;;4995677;28;20030;-60
2022/09/20 09:27:15;;;;;;;7.68;5.07;;;22.20;49.30;;;;;;4994927;28;20030;-60
2022/09/20 09:29:54;;;;;;;12.57;6.43;;;22.50;50.80;;;;;;5014921;28;20041;-60
2022/09/20 09:32:36;;;;;;;13.77;7.10;;;21.90;51.90;;;;;;5014086;28;20029;-60
2022/09/20 09:35:25;;;;;;;12.02;5.63;;;22.00;52.20;;;;;;5014046;28;20041;-60
2022/09/20 09:37:57;;;;;;;11.95;5.88;;;22.40;49.40;;;;;;5006330;28;20488;-60
2022/09/20 09:40:24;;;;;;;10.65;4.43;;;22.60;48.90;;;;;;5014218;28;20468;-61
2022/09/20 09:42:57;;;;;;;10.20;5.85;;;22.90;51.20;;;;;;5015435;28;20029;-60
2022/09/20 09:45:31;;;;;;;11.07;6.10;;;23.00;49.40;;;;;;5015146;28;20383;-60
2022/09/20 09:47:58;;;;;;;13.45;6.57;;;23.00;50.30;;;;;;5015097;28;20030;-61
2022/09/20 09:50:29;;;;;;;17.88;7.70;;;23.30;50.10;;;;;;4995609;28;20026;-61
2022/09/20 09:53:04;;;;;;;12.77;5.45;;;22.80;49.50;;;;;;4995317;28;20061;-60
2022/09/20 09:56:10;;;;;;;10.70;5.28;;;23.10;48.30;;;;;;4995387;28;20037;-60
2022/09/20 09:59:09;;;;;;;10.68;5.07;;;23.50;48.20;;;;;;4995662;28;20026;-60
2022/09/20 10:01:58;;;;;;;13.38;5.07;;;23.40;49.00;;;;;;4994623;28;20031;-61
2022/09/20 10:05:02;;;;;;;13.13;3.28;;;23.20;48.90;;;;;;4995263;28;20365;-60
2022/09/20 10:08:03;;;;;;;13.25;4.82;;;23.80;47.90;;;;;;4993728;28;20034;-60
2022/09/20 10:10:29;;;;;;;;;;;22.90;47.80;;;;;;4993851;28;20109;-60
2022/09/20 10:13:13;;;;;;;6.63;3.42;;;23.20;45.10;;;;;;4996334;28;19913;-61
2022/09/20 10:15:52;;;;;;;10.27;3.72;;;23.60;46.70;;;;;;4995994;28;20030;-61
2022/09/20 10:18:45;;;;;;;9.07;2.65;;;23.40;47.10;;;;;;4996243;28;20043;-61
2022/09/20 10:21:37;;;;;;;8.18;3.35;;;22.80;43.20;;;;;;4996262;28;20076;-61
2022/09/20 10:24:17;;;;;;;14.77;3.97;;;23.30;47.20;;;;;;4996134;28;20060;-61
2022/09/20 10:26:54;;;;;;;7.63;2.90;;;23.70;45.20;;;;;;4996799;28;20038;-61
2022/09/20 10:29:38;;;;;;;10.00;4.28;;;23.90;44.90;;;;;;5015471;28;20113;-61
2022/09/20 10:32:25;;;;;;;23.30;5.28;;;23.60;46.70;;;;;;5013401;28;20461;-61
2022/09/20 10:35:18;;;;;;;10.50;3.70;;;24.30;45.30;;;;;;5015568;28;20026;-61
2022/09/20 10:38:12;;;;;;;6.93;2.22;;;24.80;44.20;;;;;;5015881;28;20041;-61
2022/09/20 10:44:21;;;;;;;7.22;2.47;;;24.50;43.40;;;;;;5017809;28;20018;-61
2022/09/20 10:47:13;;;;;;;6.70;1.75;;;24.00;39.20;;;;;;5017596;28;20034;-61
2022/09/20 10:49:57;;;;;;;4.30;1.10;;;24.10;39.40;;;;;;5017068;28;20105;-61
2022/09/20 10:52:46;;;;;;;5.88;1.80;;;23.90;43.20;;;;;;5017409;28;20046;-61
2022/09/20 10:55:50;;;;;;;7.78;2.25;;;24.10;39.50;;;;;;5017534;28;20464;-61
2022/09/20 10:58:48;;;;;;;7.53;2.75;;;23.90;44.40;;;;;;5017301;28;20109;-61
2022/09/20 11:01:30;;;;;;;1.75;1.17;;;24.60;41.20;;;;;;5017077;28;20480;-61
2022/09/20 11:04:04;;;;;;;1.90;0.70;;;25.50;38.60;;;;;;5017018;28;20388;-61
2022/09/20 11:07:01;;;;;;;4.78;1.10;;;24.90;34.80;;;;;;5017373;28;20057;-61
2022/09/20 11:09:33;;;;;;;2.67;1.10;;;25.50;36.20;;;;;;5017201;28;20033;-61
2022/09/20 11:12:24;;;;;;;5.30;2.20;;;24.80;33.00;;;;;;5015195;28;20037;-58
2022/09/20 11:15:07;;;;;;;5.80;2.15;;;23.80;38.20;;;;;;5017149;28;20056;-59
2022/09/20 11:17:41;;;;;;;6.70;2.10;;;24.10;39.60;;;;;;5017078;28;20030;-58
2022/09/20 11:20:23;;;;;;;6.97;2.05;;;24.00;36.00;;;;;;5015852;28;20036;-58
2022/09/20 11:23:01;;;;;;;3.47;1.55;;;23.40;38.90;;;;;;5015780;28;20087;-58
2022/09/20 11:25:37;;;;;;;4.70;1.85;;;22.60;41.40;;;;;;5016649;28;20116;-58
2022/09/20 11:28:34;;;;;;;4.85;2.10;;;22.10;43.90;;;;;;5017072;28;20037;-61
2022/09/20 11:31:07;;;;;;;11.00;3.08;;;21.30;47.60;;;;;;5016707;28;20018;-60
2022/09/20 11:33:40;;;;;;;11.20;3.92;;;20.50;51.10;;;;;;5002653;28;20034;-60
2022/09/20 11:36:13;;;;;;;6.15;2.05;;;20.10;53.30;;;;;;4997106;28;20030;-60
2022/09/20 11:39:02;;;;;;;8.63;2.67;;;19.70;54.40;;;;;;4996890;28;20022;-60
2022/09/20 11:41:30;;;;;;;8.70;3.92;;;20.00;56.60;;;;;;5015163;28;20029;-60
2022/09/20 11:44:10;;;;;;;8.88;3.53;;;20.80;49.60;;;;;;5015374;28;20060;-60
2022/09/20 11:46:51;;;;;;;6.15;3.28;;;20.70;46.80;;;;;;5016510;28;20037;-60
2022/09/20 11:49:32;;;;;;;12.25;4.60;;;20.80;48.70;;;;;;5016089;28;20322;-60
2022/09/20 11:52:04;;;;;;;;;;;20.90;47.60;;;;;;5016738;28;20450;-59
2022/09/20 11:54:48;;;;;;;11.48;4.40;;;20.30;49.40;;;;;;5016220;28;20390;-59
2022/09/20 11:57:15;;;;;;;6.88;3.67;;;20.30;47.80;;;;;;5016232;28;20034;-60
2022/09/20 11:59:49;;;;;;;7.85;3.67;;;21.60;48.10;;;;;;5016276;28;20076;-60
2022/09/20 12:02:39;;;;;;;6.30;2.63;;;21.30;46.30;;;;;;5015892;28;20026;-60
2022/09/20 12:05:19;;;;;;;9.65;4.68;;;20.80;45.70;;;;;;5015906;28;20030;-60
2022/09/20 12:07:51;;;;;;;8.00;2.95;;;21.00;46.10;;;;;;5015923;28;20038;-60
2022/09/20 12:10:23;;;;;;;5.78;2.53;;;21.40;43.10;;;;;;5015824;28;20116;-60
2022/09/20 12:12:57;;;;;;;7.07;2.75;;;21.10;43.80;;;;;;5015907;28;20080;-60
2022/09/20 12:15:26;;;;;;;7.35;3.00;;;21.60;46.30;;;;;;5015899;28;20037;-60
2022/09/20 12:17:52;;;;;;;6.30;3.03;;;21.60;43.00;;;;;;5015627;28;20030;-60
2022/09/20 12:20:51;;;;;;;8.20;2.97;;;21.80;44.00;;;;;;5015953;28;20026;-60
2022/09/20 12:23:41;;;;;;;5.78;2.35;;;21.90;43.50;;;;;;5011303;28;20033;-60
2022/09/20 12:26:12;;;;;;;8.05;3.25;;;22.10;45.30;;;;;;5015192;28;20034;-60
2022/09/20 12:28:43;;;;;;;7.15;2.55;;;22.30;42.20;;;;;;5015730;28;20041;-60
2022/09/20 12:31:18;;;;;;;7.40;3.10;;;22.90;40.30;;;;;;5014981;28;20034;-60
2022/09/20 12:34:22;;;;;;;13.63;4.72;;;23.30;38.90;;;;;;5015374;28;20037;-60
2022/09/20 12:36:54;;;;;;;8.77;3.25;;;23.20;40.20;;;;;;5015319;28;20037;-60
2022/09/20 12:39:28;;;;;;;11.60;3.47;;;23.60;40.50;;;;;;5015436;28;20024;-60
2022/09/20 12:42:00;;;;;;;7.53;3.38;;;23.70;38.70;;;;;;5015476;28;20037;-60
2022/09/20 12:44:38;;;;;;;6.60;3.17;;;23.80;40.20;;;;;;5014981;28;20022;-60
2022/09/20 12:47:05;;;;;;;6.28;2.72;;;24.30;35.70;;;;;;5015377;28;20044;-60
2022/09/20 12:55:28;;;;;;;9.48;2.92;;;24.40;36.40;;;;;;5015553;28;20030;-60
2022/09/20 12:58:00;;;;;;;8.50;3.58;;;23.80;37.20;;;;;;5015279;28;20026;-60
2022/09/20 13:00:45;;;;;;;12.30;3.55;;;23.60;35.60;;;;;;5014872;28;20429;-60
2022/09/20 13:03:14;;;;;;;15.95;4.50;;;23.70;38.30;;;;;;5015098;28;20380;-60
2022/09/20 13:05:51;;;;;;;8.10;3.00;;;23.80;39.50;;;;;;5015207;28;20057;-60
2022/09/20 13:08:31;;;;;;;9.25;3.00;;;23.50;36.90;;;;;;5014592;28;20440;-60
2022/09/20 13:11:06;;;;;;;8.60;3.58;;;22.90;40.00;;;;;;5014814;28;20034;-60
2022/09/20 13:13:56;;;;;;;15.80;5.00;;;23.20;41.80;;;;;;5014991;28;20516;-60
2022/09/20 13:16:46;;;;;;;14.27;4.50;;;23.20;40.40;;;;;;5015078;28;20448;-60
2022/09/20 13:19:32;;;;;;;8.93;3.33;;;22.90;41.80;;;;;;5014981;28;20502;-60
2022/09/20 13:22:26;;;;;;;9.80;4.22;;;21.20;40.20;;;;;;5014618;28;20072;-60
2022/09/20 13:24:56;;;;;;;12.23;4.10;;;21.30;44.90;;;;;;5014563;28;20018;-60
2022/09/20 13:27:33;;;;;;;8.48;3.72;;;21.90;43.10;;;;;;5014911;28;20030;-60
2022/09/20 13:30:19;;;;;;;16.05;5.05;;;21.70;42.90;;;;;;5014991;28;20044;-60
2022/09/20 13:32:45;;;;;;;13.00;4.97;;;21.50;41.90;;;;;;5014738;28;20037;-60
2022/09/20 13:35:22;;;;;;;11.95;4.20;;;21.50;43.10;;;;;;5014490;28;20472;-60
2022/09/20 13:37:56;;;;;;;9.32;4.55;;;22.30;42.80;;;;;;5014997;28;20030;-60
2022/09/20 13:40:24;;;;;;;10.38;3.45;;;23.00;41.90;;;;;;5014644;28;20051;-60
2022/09/20 13:42:52;;;;;;;10.13;3.25;;;23.20;40.10;;;;;;5014268;28;20068;-60
2022/09/20 13:45:20;;;;;;;9.02;3.97;;;23.40;39.90;;;;;;5014656;28;20026;-60
2022/09/20 13:47:52;;;;;;;8.18;3.22;;;22.70;40.80;;;;;;5014599;28;20057;-60
2022/09/20 13:50:33;;;;;;;16.48;7.65;;;21.80;42.90;;;;;;5014696;28;20037;-60